Time;durP1;ratioP1;P1;durP2;ratioP2;P2;SDS_P1;SDS_P2;PMS_P1;PMS_P2;Temp;Humidity;BMP_temperature;BMP_pressure;BME280_temperature;BME280_humidity;BME280_pressure;Samples;Min_cycle;Max_cycle;Signal;HPM_P1;HPM_P2
2023/04/09 00:01:22;;;;;;;0.68;0.40;;;18.40;99.90;;;;;;4929631;29;20245;-79
2023/04/09 00:03:54;;;;;;;1.85;0.52;;;18.30;99.90;;;;;;4935831;29;20198;-80
2023/04/09 00:06:25;;;;;;;1.50;0.50;;;18.40;99.90;;;;;;4938176;29;20194;-81
2023/04/09 00:08:56;;;;;;;3.08;0.40;;;18.50;99.90;;;;;;4938865;29;20705;-84
2023/04/09 00:11:27;;;;;;;1.17;0.38;;;18.50;99.90;;;;;;4939459;29;20197;-81
2023/04/09 00:13:59;;;;;;;0.98;0.30;;;18.50;99.90;;;;;;4938988;29;20210;-79
2023/04/09 00:16:32;;;;;;;1.73;0.50;;;18.60;99.90;;;;;;4939044;29;20556;-87
2023/04/09 00:19:03;;;;;;;1.52;0.55;;;18.50;99.90;;;;;;4938937;29;20223;-78
2023/04/09 00:21:34;;;;;;;2.33;0.40;;;18.50;99.90;;;;;;4939067;29;20189;-84
2023/04/09 00:24:06;;;;;;;1.15;0.60;;;18.70;99.90;;;;;;4938659;29;20208;-81
2023/04/09 00:26:37;;;;;;;0.98;0.50;;;18.80;99.90;;;;;;4938865;29;20209;-80
2023/04/09 00:29:08;;;;;;;2.20;0.57;;;18.90;99.90;;;;;;4938701;29;20255;-79
2023/04/09 00:31:41;;;;;;;1.23;0.40;;;19.00;99.90;;;;;;4938723;29;20198;-79
2023/04/09 00:34:12;;;;;;;1.08;0.25;;;19.00;99.90;;;;;;4939316;29;20205;-85
2023/04/09 00:36:43;;;;;;;1.38;0.30;;;18.90;99.90;;;;;;4938944;29;20193;-78
2023/04/09 00:39:15;;;;;;;1.02;0.40;;;18.90;99.90;;;;;;4938406;29;20209;-79
2023/04/09 00:41:46;;;;;;;1.83;0.40;;;19.00;99.90;;;;;;4938527;29;20216;-77
2023/04/09 00:44:17;;;;;;;2.67;0.38;;;19.00;99.90;;;;;;4938787;29;20197;-77
2023/04/09 00:46:50;;;;;;;1.08;0.43;;;19.10;99.90;;;;;;4938465;29;20197;-77
2023/04/09 00:49:23;;;;;;;4.15;0.50;;;19.00;99.90;;;;;;4938286;29;20221;-78
2023/04/09 00:51:54;;;;;;;1.85;0.52;;;19.10;99.90;;;;;;4938309;29;20200;-81
2023/04/09 00:54:26;;;;;;;2.25;0.38;;;19.20;99.90;;;;;;4938528;29;20563;-79
2023/04/09 00:56:57;;;;;;;0.93;0.38;;;19.30;99.90;;;;;;4938167;29;20642;-79
2023/04/09 00:59:29;;;;;;;0.82;0.40;;;19.30;99.90;;;;;;4938116;29;20197;-79
2023/04/09 01:02:02;;;;;;;1.17;0.30;;;19.30;99.90;;;;;;4938209;29;20237;-78
2023/04/09 01:04:33;;;;;;;2.20;0.40;;;19.40;99.90;;;;;;4926064;29;20206;-79
2023/04/09 01:07:13;;;;;;;2.10;0.45;;;19.40;99.90;;;;;;4917817;29;20555;-80
2023/04/09 01:09:50;;;;;;;2.78;0.43;;;19.40;99.90;;;;;;4937932;29;20701;-79
2023/04/09 01:12:28;;;;;;;1.13;0.45;;;19.40;99.90;;;;;;4938147;29;20201;-77
2023/04/09 01:15:05;;;;;;;2.60;0.47;;;19.50;99.90;;;;;;4938216;29;20197;-80
2023/04/09 01:17:43;;;;;;;1.90;0.50;;;19.50;99.90;;;;;;4937739;29;20193;-79
2023/04/09 01:20:17;;;;;;;2.03;0.50;;;19.60;99.90;;;;;;4937706;29;20205;-80
2023/04/09 01:22:59;;;;;;;1.75;0.57;;;19.60;99.90;;;;;;4937572;29;20660;-81
2023/04/09 01:25:46;;;;;;;0.52;0.40;;;19.60;99.90;;;;;;4937730;29;20194;-76
2023/04/09 01:28:22;;;;;;;1.63;0.50;;;19.60;99.90;;;;;;4937732;29;20201;-78
2023/04/09 01:30:56;;;;;;;1.98;0.40;;;19.80;99.90;;;;;;4937770;29;20217;-78
2023/04/09 01:33:28;;;;;;;1.05;0.50;;;19.90;99.90;;;;;;4937592;29;20196;-81
2023/04/09 01:36:02;;;;;;;1.23;0.52;;;20.10;99.90;;;;;;4937389;29;20209;-80
2023/04/09 01:38:35;;;;;;;1.92;0.50;;;20.20;99.90;;;;;;4937520;29;20194;-79
2023/04/09 01:41:08;;;;;;;1.35;0.50;;;20.10;99.90;;;;;;4937521;29;20195;-79
2023/04/09 01:43:41;;;;;;;1.33;0.70;;;20.20;99.90;;;;;;4937419;29;20205;-79
2023/04/09 01:46:13;;;;;;;1.38;0.40;;;20.30;99.90;;;;;;4937739;29;20189;-81
2023/04/09 01:48:45;;;;;;;1.90;0.80;;;20.30;99.90;;;;;;4937228;29;20200;-79
2023/04/09 01:51:16;;;;;;;1.67;0.40;;;20.30;99.90;;;;;;4936935;29;20707;-77
2023/04/09 01:53:47;;;;;;;1.70;0.40;;;20.20;99.90;;;;;;4937294;29;20275;-81
2023/04/09 01:56:18;;;;;;;1.90;0.50;;;20.20;99.90;;;;;;4937141;29;20198;-78
2023/04/09 01:58:51;;;;;;;0.93;0.65;;;20.20;99.90;;;;;;4937426;29;20194;-80
2023/04/09 02:01:31;;;;;;;1.58;0.40;;;20.20;99.90;;;;;;4964090;23;20244;-75
2023/04/09 02:04:04;;;;;;;1.40;0.40;;;20.30;99.90;;;;;;4936945;29;20213;-78
2023/04/09 02:06:40;;;;;;;0.82;0.40;;;20.50;99.90;;;;;;4936637;29;20566;-77
2023/04/09 02:09:13;;;;;;;1.48;0.28;;;20.50;99.90;;;;;;4937148;29;20197;-77
2023/04/09 02:11:45;;;;;;;1.27;0.60;;;20.50;99.90;;;;;;4937173;29;20197;-78
2023/04/09 02:14:20;;;;;;;1.00;0.40;;;20.40;99.90;;;;;;4936901;29;20529;-76
2023/04/09 02:16:51;;;;;;;0.65;0.50;;;20.40;99.90;;;;;;4936841;29;20204;-82
2023/04/09 02:19:22;;;;;;;0.77;0.47;;;20.30;99.90;;;;;;4936552;29;20205;-77
2023/04/09 02:21:53;;;;;;;0.73;0.65;;;20.40;99.90;;;;;;4936603;29;20213;-77
2023/04/09 02:24:24;;;;;;;1.42;0.30;;;20.40;99.90;;;;;;4936561;29;20194;-78
2023/04/09 02:26:55;;;;;;;0.77;0.40;;;20.50;99.90;;;;;;4936666;29;20216;-81
2023/04/09 02:29:28;;;;;;;0.82;0.40;;;20.70;99.90;;;;;;4935902;29;20217;-78
2023/04/09 02:31:59;;;;;;;2.10;0.40;;;20.80;99.90;;;;;;4936503;29;20574;-77
2023/04/09 02:34:30;;;;;;;1.33;0.32;;;20.70;99.90;;;;;;4936299;29;20200;-77
2023/04/09 02:37:02;;;;;;;0.80;0.40;;;20.70;99.90;;;;;;4936613;29;20669;-79
2023/04/09 02:39:33;;;;;;;1.10;0.30;;;20.70;99.90;;;;;;4936496;29;20193;-78
2023/04/09 02:42:06;;;;;;;0.88;0.50;;;20.90;99.90;;;;;;4946837;29;20201;-79
2023/04/09 02:44:39;;;;;;;1.75;0.40;;;20.90;99.90;;;;;;4936437;29;20197;-81
2023/04/09 02:47:10;;;;;;;0.85;0.38;;;21.00;99.90;;;;;;4945111;29;20202;-81
2023/04/09 02:49:41;;;;;;;1.88;0.55;;;21.00;99.90;;;;;;4955142;29;20200;-76
2023/04/09 02:52:13;;;;;;;1.77;0.50;;;21.10;99.90;;;;;;4955694;29;20197;-83
2023/04/09 02:54:44;;;;;;;1.55;0.63;;;21.10;99.90;;;;;;4955480;29;20644;-76
2023/04/09 02:57:16;;;;;;;1.17;0.47;;;21.10;99.90;;;;;;4955308;29;20189;-77
2023/04/09 02:59:49;;;;;;;0.88;0.30;;;21.10;99.90;;;;;;4942748;29;20554;-78
2023/04/09 03:02:20;;;;;;;1.70;0.40;;;21.20;99.90;;;;;;4936302;29;20193;-78
2023/04/09 03:04:51;;;;;;;1.77;0.50;;;21.10;99.90;;;;;;4936188;29;20189;-76
2023/04/09 03:07:22;;;;;;;0.60;0.40;;;21.10;99.90;;;;;;4936067;29;20198;-75
2023/04/09 03:09:54;;;;;;;0.52;0.40;;;21.10;99.90;;;;;;4936049;29;20221;-75
2023/04/09 03:12:25;;;;;;;1.83;0.50;;;21.00;99.90;;;;;;4935980;29;20201;-76
2023/04/09 03:14:58;;;;;;;1.98;0.43;;;21.00;99.90;;;;;;4936024;29;20194;-77
2023/04/09 03:17:30;;;;;;;1.42;0.35;;;21.10;99.90;;;;;;4935956;29;20193;-76
2023/04/09 03:20:01;;;;;;;1.60;0.43;;;21.20;99.90;;;;;;4936058;29;20564;-77
2023/04/09 03:22:37;;;;;;;0.52;0.32;;;21.10;99.90;;;;;;4935866;29;20208;-78
2023/04/09 03:25:08;;;;;;;1.15;0.43;;;20.90;99.90;;;;;;4935924;29;20201;-76
2023/04/09 03:27:39;;;;;;;0.22;0.22;;;20.80;99.90;;;;;;4935877;29;20600;-76
2023/04/09 03:30:13;;;;;;;1.20;0.40;;;20.90;99.90;;;;;;4935774;29;20221;-77
2023/04/09 03:32:44;;;;;;;1.75;0.50;;;20.90;99.90;;;;;;4935428;29;20204;-78
2023/04/09 03:35:15;;;;;;;1.05;0.40;;;21.00;99.90;;;;;;4944245;28;20192;-76
2023/04/09 03:37:46;;;;;;;3.83;0.50;;;21.10;99.90;;;;;;4974514;28;20199;-76
2023/04/09 03:40:18;;;;;;;1.38;0.40;;;21.10;99.90;;;;;;4974478;28;20192;-75
2023/04/09 03:42:49;;;;;;;0.45;0.30;;;21.00;99.90;;;;;;4959014;29;20197;-75
2023/04/09 03:45:22;;;;;;;0.70;0.20;;;21.10;99.90;;;;;;4958831;28;20208;-79
2023/04/09 03:47:53;;;;;;;1.75;0.32;;;21.00;99.90;;;;;;4958368;29;20649;-76
2023/04/09 03:50:24;;;;;;;1.10;0.30;;;21.00;99.90;;;;;;4958613;28;20706;-76
2023/04/09 03:52:55;;;;;;;0.90;0.30;;;21.10;99.90;;;;;;4958566;28;20197;-79
2023/04/09 03:55:26;;;;;;;1.25;0.32;;;21.00;99.90;;;;;;4958577;28;20591;-82
2023/04/09 03:57:57;;;;;;;1.30;0.40;;;21.00;99.90;;;;;;4958919;28;20193;-76
2023/04/09 04:00:30;;;;;;;1.60;0.40;;;21.00;99.90;;;;;;4958181;28;20240;-76
2023/04/09 04:03:02;;;;;;;1.98;0.30;;;20.90;99.90;;;;;;4958155;29;20193;-75
2023/04/09 04:05:33;;;;;;;1.20;0.43;;;20.90;99.90;;;;;;4958400;29;20209;-75
2023/04/09 04:08:04;;;;;;;0.50;0.20;;;20.80;99.90;;;;;;4958332;29;20216;-77
2023/04/09 04:10:36;;;;;;;0.90;0.45;;;20.80;99.90;;;;;;4958432;29;20216;-78
2023/04/09 04:13:09;;;;;;;0.98;0.30;;;20.80;99.90;;;;;;4958417;29;20199;-76
2023/04/09 04:15:45;;;;;;;1.20;0.40;;;20.90;99.90;;;;;;4958207;29;20200;-76
2023/04/09 04:18:16;;;;;;;0.60;0.30;;;20.80;99.90;;;;;;4958234;28;20201;-76
2023/04/09 04:20:47;;;;;;;1.73;0.40;;;20.70;99.90;;;;;;4958154;28;20649;-76
2023/04/09 04:23:18;;;;;;;1.83;0.40;;;20.70;99.90;;;;;;4958075;28;20558;-75
2023/04/09 04:25:49;;;;;;;3.60;0.38;;;20.70;99.90;;;;;;4958093;28;20637;-75
2023/04/09 04:28:20;;;;;;;2.55;0.40;;;20.90;99.90;;;;;;4958069;28;20284;-75
2023/04/09 04:30:53;;;;;;;1.67;0.35;;;20.90;99.90;;;;;;4957739;28;20228;-76
2023/04/09 04:33:24;;;;;;;0.90;0.30;;;20.70;99.90;;;;;;4958286;28;20200;-76
2023/04/09 04:35:55;;;;;;;1.38;0.35;;;20.70;99.90;;;;;;4957933;29;20671;-75
2023/04/09 04:38:26;;;;;;;1.60;0.32;;;20.70;99.90;;;;;;4958177;28;20707;-75
2023/04/09 04:40:57;;;;;;;2.05;0.30;;;20.70;99.90;;;;;;4957972;28;20197;-77
2023/04/09 04:43:29;;;;;;;1.25;0.50;;;20.70;99.90;;;;;;4957692;28;20198;-75
2023/04/09 04:46:02;;;;;;;1.80;0.52;;;20.60;99.90;;;;;;4957448;29;20208;-77
2023/04/09 04:48:32;;;;;;;0.98;0.45;;;20.60;99.90;;;;;;4957673;29;20557;-82
2023/04/09 04:51:04;;;;;;;0.85;0.30;;;20.60;99.90;;;;;;4956773;28;20345;-75
2023/04/09 04:53:35;;;;;;;1.58;0.50;;;20.50;99.90;;;;;;4957523;28;20197;-76
2023/04/09 04:56:06;;;;;;;1.23;0.32;;;20.50;99.90;;;;;;4957316;29;20197;-75
2023/04/09 04:58:37;;;;;;;0.68;0.40;;;20.60;99.90;;;;;;4957451;28;20208;-79
2023/04/09 05:01:10;;;;;;;1.70;0.40;;;20.80;99.90;;;;;;4957085;28;20244;-76
2023/04/09 05:03:41;;;;;;;1.50;0.32;;;20.80;99.90;;;;;;4957403;28;20197;-76
2023/04/09 05:06:12;;;;;;;1.17;0.40;;;20.70;99.90;;;;;;4957332;28;20193;-76
2023/04/09 05:08:43;;;;;;;1.05;0.30;;;20.60;99.90;;;;;;4957515;28;20201;-77
2023/04/09 05:11:15;;;;;;;0.90;0.50;;;20.50;99.90;;;;;;4957455;28;20233;-75
2023/04/09 05:13:46;;;;;;;1.25;0.40;;;20.40;99.90;;;;;;4957067;28;20194;-76
2023/04/09 05:16:23;;;;;;;1.67;0.40;;;20.30;99.90;;;;;;4957414;28;20197;-79
2023/04/09 05:18:54;;;;;;;1.20;0.32;;;20.40;99.90;;;;;;4957208;28;20716;-75
2023/04/09 05:21:25;;;;;;;1.23;0.40;;;20.30;99.90;;;;;;4957019;28;20564;-76
2023/04/09 05:23:56;;;;;;;1.38;0.43;;;20.30;99.90;;;;;;4956981;28;20204;-76
2023/04/09 05:26:27;;;;;;;1.27;0.47;;;20.20;99.90;;;;;;4957154;29;20193;-76
2023/04/09 05:28:58;;;;;;;1.63;0.40;;;20.30;99.90;;;;;;4956471;29;20204;-76
2023/04/09 05:31:31;;;;;;;4.13;0.30;;;20.30;99.90;;;;;;4956733;29;20228;-76
2023/04/09 05:34:02;;;;;;;1.85;0.40;;;20.40;99.90;;;;;;4957034;29;20201;-76
2023/04/09 05:36:34;;;;;;;2.03;0.40;;;20.40;99.90;;;;;;4956664;29;20626;-76
2023/04/09 05:39:05;;;;;;;0.95;0.30;;;20.40;99.90;;;;;;4956794;28;20555;-78
2023/04/09 05:41:37;;;;;;;1.05;0.43;;;20.40;99.90;;;;;;4952867;29;20200;-75
2023/04/09 05:44:08;;;;;;;2.28;0.50;;;20.40;99.90;;;;;;4956380;28;20192;-75
2023/04/09 05:46:41;;;;;;;2.00;0.40;;;20.30;99.90;;;;;;4956616;28;20197;-76
2023/04/09 05:49:12;;;;;;;0.73;0.30;;;20.30;99.90;;;;;;4956725;28;20636;-76
2023/04/09 05:51:43;;;;;;;1.45;0.30;;;20.40;99.90;;;;;;4956290;29;20746;-73
2023/04/09 05:54:14;;;;;;;1.33;0.40;;;20.30;99.90;;;;;;4956337;29;20248;-76
2023/04/09 05:56:46;;;;;;;1.33;0.40;;;20.20;99.90;;;;;;4952561;28;20201;-75
2023/04/09 05:59:17;;;;;;;1.23;0.45;;;20.10;99.90;;;;;;4956353;28;20200;-74
2023/04/09 06:01:50;;;;;;;1.05;0.57;;;20.10;99.90;;;;;;4955982;28;20577;-77
2023/04/09 06:04:22;;;;;;;1.17;0.30;;;20.10;99.90;;;;;;4955524;28;20197;-77
2023/04/09 06:06:58;;;;;;;1.10;0.40;;;20.00;99.90;;;;;;4956156;28;20196;-75
2023/04/09 06:09:30;;;;;;;0.88;0.40;;;20.00;99.90;;;;;;4955985;29;20525;-78
2023/04/09 06:12:01;;;;;;;2.85;0.55;;;20.00;99.90;;;;;;4955595;29;20221;-77
2023/04/09 06:14:32;;;;;;;1.38;0.32;;;20.10;99.90;;;;;;4955671;28;20287;-77
2023/04/09 06:17:06;;;;;;;1.40;0.47;;;20.10;99.90;;;;;;4955960;29;20229;-75
2023/04/09 06:19:37;;;;;;;1.35;0.25;;;20.10;99.90;;;;;;4955971;29;20200;-77
2023/04/09 06:22:11;;;;;;;0.95;0.45;;;20.10;99.90;;;;;;4956190;29;20193;-76
2023/04/09 06:24:42;;;;;;;1.08;0.35;;;20.00;99.90;;;;;;4955753;29;20197;-76
2023/04/09 06:27:13;;;;;;;1.65;0.40;;;20.00;99.90;;;;;;4955748;28;20197;-74
2023/04/09 06:29:44;;;;;;;2.08;0.30;;;20.00;99.90;;;;;;4955914;28;20193;-75
2023/04/09 06:32:17;;;;;;;0.88;0.50;;;19.90;99.90;;;;;;4955658;28;20591;-75
2023/04/09 06:34:48;;;;;;;1.40;0.45;;;19.80;99.90;;;;;;4955630;29;20553;-76
2023/04/09 06:37:19;;;;;;;1.23;0.40;;;19.80;99.90;;;;;;4955682;29;20193;-76
2023/04/09 06:39:50;;;;;;;1.10;0.40;;;19.80;99.90;;;;;;4955616;29;20193;-75
2023/04/09 06:42:21;;;;;;;1.00;0.35;;;19.80;99.90;;;;;;4955278;29;20204;-77
2023/04/09 06:44:52;;;;;;;1.23;0.30;;;19.70;99.90;;;;;;4955525;29;20637;-83
2023/04/09 06:47:25;;;;;;;1.65;0.40;;;19.60;99.90;;;;;;4955382;29;20196;-77
2023/04/09 06:49:56;;;;;;;0.80;0.40;;;19.60;99.90;;;;;;4955421;28;20200;-76
2023/04/09 06:52:27;;;;;;;1.60;0.45;;;19.60;99.90;;;;;;4955310;29;20216;-85
2023/04/09 06:54:58;;;;;;;1.88;0.60;;;19.50;99.90;;;;;;4955169;29;20192;-76
2023/04/09 06:57:29;;;;;;;0.77;0.35;;;19.50;99.90;;;;;;4955752;29;20193;-76
2023/04/09 07:00:00;;;;;;;1.20;0.55;;;19.40;99.90;;;;;;4955142;28;20236;-77
2023/04/09 07:02:33;;;;;;;0.68;0.40;;;19.40;99.90;;;;;;4955438;28;20197;-76
2023/04/09 07:05:05;;;;;;;1.50;0.40;;;19.40;99.90;;;;;;4955263;28;20204;-75
2023/04/09 07:07:36;;;;;;;1.02;0.40;;;19.40;99.90;;;;;;4955334;28;20189;-76
2023/04/09 07:10:08;;;;;;;2.10;0.50;;;19.30;99.90;;;;;;4955029;28;20193;-76
2023/04/09 07:12:39;;;;;;;1.95;0.55;;;19.30;99.90;;;;;;4955126;28;20579;-76
2023/04/09 07:15:11;;;;;;;1.35;0.40;;;19.20;99.90;;;;;;4959796;28;20279;-76
2023/04/09 07:17:44;;;;;;;1.85;0.50;;;19.30;99.90;;;;;;4961636;28;20559;-76
2023/04/09 07:20:17;;;;;;;1.27;0.47;;;19.20;99.90;;;;;;4961564;28;20197;-76
2023/04/09 07:22:48;;;;;;;1.67;0.50;;;19.20;99.90;;;;;;4961362;28;20204;-76
2023/04/09 07:25:20;;;;;;;1.42;0.60;;;19.10;99.90;;;;;;4961372;28;20193;-78
2023/04/09 07:27:51;;;;;;;1.27;0.70;;;19.10;99.90;;;;;;4961331;28;20671;-76
2023/04/09 07:30:22;;;;;;;2.35;0.75;;;19.00;99.90;;;;;;4961515;28;20197;-76
2023/04/09 07:32:55;;;;;;;1.80;0.68;;;19.00;99.90;;;;;;4961415;28;20330;-76
2023/04/09 07:35:26;;;;;;;1.35;0.50;;;18.90;99.90;;;;;;4961423;29;20220;-75
2023/04/09 07:37:58;;;;;;;1.55;0.68;;;18.90;99.90;;;;;;4961116;29;20641;-75
2023/04/09 07:40:29;;;;;;;1.70;0.50;;;18.80;99.90;;;;;;4960714;28;20648;-76
2023/04/09 07:43:00;;;;;;;0.85;0.50;;;18.80;99.90;;;;;;4942032;29;20189;-75
2023/04/09 07:45:32;;;;;;;1.40;0.57;;;18.70;99.90;;;;;;4944239;28;20196;-77
2023/04/09 07:48:08;;;;;;;1.95;0.75;;;18.70;99.90;;;;;;4959668;29;20200;-76
2023/04/09 07:50:40;;;;;;;3.13;0.60;;;18.70;99.90;;;;;;4961396;28;20687;-75
2023/04/09 07:53:11;;;;;;;2.95;0.80;;;18.60;99.90;;;;;;4960938;28;20224;-76
2023/04/09 07:55:42;;;;;;;2.75;0.90;;;18.60;99.90;;;;;;4958719;28;20210;-76
2023/04/09 07:58:13;;;;;;;1.48;0.70;;;18.60;99.90;;;;;;4960221;28;20211;-77
2023/04/09 08:00:44;;;;;;;2.30;0.98;;;18.60;99.90;;;;;;4960047;28;20239;-75
2023/04/09 08:03:18;;;;;;;5.03;1.10;;;18.60;99.90;;;;;;4960797;29;20196;-75
2023/04/09 08:05:49;;;;;;;4.22;1.15;;;18.50;99.90;;;;;;4960715;29;20613;-76
2023/04/09 08:08:20;;;;;;;2.65;0.70;;;18.50;99.90;;;;;;4961045;28;20193;-75
2023/04/09 08:10:51;;;;;;;2.70;0.77;;;18.50;99.90;;;;;;4960930;28;20565;-78
2023/04/09 08:13:24;;;;;;;2.42;0.95;;;18.40;99.90;;;;;;4960993;28;20267;-76
2023/04/09 08:15:55;;;;;;;1.30;0.70;;;18.40;99.90;;;;;;4961455;28;20656;-76
2023/04/09 08:18:28;;;;;;;1.45;0.82;;;18.40;99.90;;;;;;4960813;28;20200;-76
2023/04/09 08:20:59;;;;;;;2.63;0.90;;;18.40;99.90;;;;;;4961333;28;20216;-74
2023/04/09 08:23:30;;;;;;;2.53;0.98;;;18.30;99.90;;;;;;4960853;28;20279;-76
2023/04/09 08:26:02;;;;;;;1.58;0.90;;;18.30;99.90;;;;;;4958320;28;20219;-76
2023/04/09 08:28:33;;;;;;;1.13;0.90;;;18.20;99.90;;;;;;4950371;29;20571;-77
2023/04/09 08:31:04;;;;;;;2.58;0.80;;;18.20;99.90;;;;;;4946963;29;20801;-76
2023/04/09 08:33:37;;;;;;;3.17;0.98;;;18.10;99.90;;;;;;4953647;29;20243;-76
2023/04/09 08:36:12;;;;;;;3.85;0.85;;;18.10;99.90;;;;;;4957530;28;20571;-75
2023/04/09 08:38:45;;;;;;;1.85;0.65;;;18.00;99.90;;;;;;4957385;29;20196;-79
2023/04/09 08:41:21;;;;;;;2.78;1.00;;;18.00;99.90;;;;;;4954415;28;20201;-77
2023/04/09 08:43:53;;;;;;;1.45;0.60;;;18.00;99.90;;;;;;4956934;28;20204;-76
2023/04/09 08:46:25;;;;;;;2.63;0.70;;;18.00;99.90;;;;;;4957029;29;20672;-76
2023/04/09 08:48:58;;;;;;;1.00;0.60;;;17.90;99.90;;;;;;4957519;29;20207;-75
2023/04/09 08:51:30;;;;;;;1.73;0.80;;;17.90;99.90;;;;;;4956858;28;20570;-75
2023/04/09 08:54:02;;;;;;;1.85;0.73;;;17.90;99.90;;;;;;4957413;28;20573;-77
2023/04/09 08:56:33;;;;;;;4.18;0.80;;;17.80;99.90;;;;;;4956609;29;20201;-76
2023/04/09 08:59:05;;;;;;;1.92;0.70;;;17.90;99.90;;;;;;4956796;28;20201;-76
2023/04/09 09:01:36;;;;;;;1.55;0.57;;;17.90;99.90;;;;;;4955814;29;20240;-76
2023/04/09 09:04:09;;;;;;;2.25;0.68;;;17.80;99.90;;;;;;4955030;28;20201;-76
2023/04/09 09:06:42;;;;;;;1.63;0.70;;;17.80;99.90;;;;;;4955613;28;20205;-76
2023/04/09 09:09:13;;;;;;;3.70;0.82;;;17.70;99.90;;;;;;4957086;28;20211;-77
2023/04/09 09:11:45;;;;;;;2.25;0.82;;;17.70;99.90;;;;;;4956365;28;20216;-77
2023/04/09 09:14:18;;;;;;;2.13;0.60;;;17.70;99.90;;;;;;4948711;29;20227;-77
2023/04/09 09:17:08;;;;;;;2.38;0.90;;;17.70;99.90;;;;;;4956764;28;20197;-76
2023/04/09 09:19:41;;;;;;;2.35;0.85;;;17.60;99.90;;;;;;4952858;28;20228;-76
2023/04/09 09:22:13;;;;;;;2.08;0.88;;;17.60;99.90;;;;;;4956852;28;20668;-76
2023/04/09 09:24:50;;;;;;;1.38;0.60;;;17.60;99.90;;;;;;4956503;28;20197;-77
2023/04/09 09:27:39;;;;;;;2.03;0.63;;;17.60;99.90;;;;;;4956414;28;20205;-77
2023/04/09 09:30:11;;;;;;;2.78;0.90;;;17.50;99.90;;;;;;4946393;29;20244;-76
2023/04/09 09:32:42;;;;;;;2.72;1.02;;;17.50;99.90;;;;;;4955999;28;20628;-76
2023/04/09 09:35:15;;;;;;;2.55;0.85;;;17.50;99.90;;;;;;4956370;29;20201;-75
2023/04/09 09:37:47;;;;;;;1.55;0.70;;;17.50;99.90;;;;;;4955845;28;20571;-76
2023/04/09 09:40:29;;;;;;;2.88;0.73;;;17.40;99.90;;;;;;4956792;28;20205;-76
2023/04/09 09:43:00;;;;;;;1.38;0.90;;;17.40;99.90;;;;;;4948422;29;20205;-76
2023/04/09 09:45:33;;;;;;;2.70;0.73;;;17.40;99.90;;;;;;4955741;28;20565;-76
2023/04/09 09:48:04;;;;;;;3.35;0.70;;;17.30;99.90;;;;;;4956363;28;20213;-77
2023/04/09 09:50:40;;;;;;;2.65;0.80;;;17.30;99.90;;;;;;4956204;29;20588;-76
2023/04/09 09:53:12;;;;;;;2.35;0.70;;;17.20;99.90;;;;;;4956245;28;20239;-76
2023/04/09 09:55:46;;;;;;;1.80;0.60;;;17.20;99.90;;;;;;4956012;29;20672;-77
2023/04/09 09:58:22;;;;;;;1.65;0.80;;;17.20;99.90;;;;;;4950105;28;20236;-76
2023/04/09 10:00:56;;;;;;;2.35;0.80;;;17.10;99.90;;;;;;4944275;29;20232;-77
2023/04/09 10:03:29;;;;;;;1.88;0.90;;;17.10;99.90;;;;;;4955347;28;20201;-77
2023/04/09 10:06:05;;;;;;;2.22;0.95;;;16.90;99.90;;;;;;4955523;28;20193;-77
2023/04/09 10:08:39;;;;;;;3.60;1.05;;;17.00;99.90;;;;;;4955353;28;20251;-77
2023/04/09 10:11:11;;;;;;;2.13;1.00;;;16.90;99.90;;;;;;4955813;28;20207;-79
2023/04/09 10:13:46;;;;;;;1.00;0.70;;;16.90;99.90;;;;;;4949171;29;20216;-78
2023/04/09 10:16:18;;;;;;;3.22;1.00;;;16.80;99.90;;;;;;4955217;28;20214;-77
2023/04/09 10:18:50;;;;;;;2.70;0.95;;;16.80;99.90;;;;;;4955663;29;20193;-79
2023/04/09 10:21:33;;;;;;;2.88;0.90;;;16.80;99.90;;;;;;4954926;29;20679;-77
2023/04/09 10:24:06;;;;;;;3.80;1.00;;;16.70;99.90;;;;;;4955883;28;20204;-76
2023/04/09 10:26:41;;;;;;;3.63;0.85;;;16.70;99.90;;;;;;4955299;28;20205;-78
2023/04/09 10:29:13;;;;;;;3.15;0.80;;;16.70;99.90;;;;;;4955107;28;20207;-76
2023/04/09 10:32:07;;;;;;;3.17;0.80;;;16.60;99.90;;;;;;4954631;28;20193;-77
2023/04/09 10:34:40;;;;;;;2.17;0.80;;;16.60;99.90;;;;;;4952700;28;20209;-76
2023/04/09 10:37:18;;;;;;;2.40;0.70;;;16.60;99.90;;;;;;4955305;28;20201;-78
2023/04/09 10:39:50;;;;;;;2.13;0.90;;;16.60;99.90;;;;;;4943600;29;20196;-77
2023/04/09 10:42:24;;;;;;;3.85;1.00;;;16.60;99.90;;;;;;4955378;28;20291;-77
2023/04/09 10:45:09;;;;;;;2.67;0.77;;;16.50;99.90;;;;;;4955740;29;20197;-78
2023/04/09 10:47:41;;;;;;;1.02;0.63;;;16.50;99.90;;;;;;4954066;28;20675;-77
2023/04/09 10:50:19;;;;;;;2.63;0.82;;;16.50;99.90;;;;;;4954120;28;20653;-76
2023/04/09 10:52:56;;;;;;;2.47;0.80;;;16.40;99.90;;;;;;4942871;29;20216;-77
2023/04/09 10:55:40;;;;;;;2.85;0.80;;;16.40;99.90;;;;;;4954762;28;20220;-77
2023/04/09 10:58:12;;;;;;;1.65;0.60;;;16.40;99.90;;;;;;4954959;28;20197;-76
2023/04/09 11:00:44;;;;;;;2.78;0.57;;;16.40;99.90;;;;;;4954650;28;20284;-77
2023/04/09 11:03:27;;;;;;;2.53;0.85;;;16.40;99.90;;;;;;4954655;28;20676;-76
2023/04/09 11:06:02;;;;;;;2.47;0.70;;;16.30;99.90;;;;;;4945242;28;20687;-77
2023/04/09 11:08:36;;;;;;;3.35;0.73;;;16.30;99.90;;;;;;4955021;28;20639;-76
2023/04/09 11:11:08;;;;;;;2.17;0.90;;;16.30;99.90;;;;;;4955017;28;20676;-76
2023/04/09 11:13:40;;;;;;;2.17;0.60;;;16.30;99.90;;;;;;4954986;29;20703;-77
2023/04/09 11:16:11;;;;;;;4.63;0.95;;;16.20;99.90;;;;;;4954546;28;20205;-76
2023/04/09 11:18:42;;;;;;;2.00;0.80;;;16.20;99.90;;;;;;4954724;29;20204;-77
2023/04/09 11:21:15;;;;;;;2.28;0.80;;;16.20;99.90;;;;;;4955166;28;20221;-78
2023/04/09 11:23:54;;;;;;;2.22;0.88;;;16.20;99.90;;;;;;4954978;29;20220;-77
2023/04/09 11:26:37;;;;;;;3.40;1.10;;;16.10;99.90;;;;;;4954903;29;20209;-77
2023/04/09 11:29:10;;;;;;;2.08;0.70;;;16.10;99.90;;;;;;4954173;28;20201;-78
2023/04/09 11:31:45;;;;;;;1.90;0.80;;;16.10;99.90;;;;;;4953768;28;20199;-77
2023/04/09 11:34:16;;;;;;;2.15;0.70;;;16.00;99.90;;;;;;4954045;28;20228;-76
2023/04/09 11:36:51;;;;;;;3.17;0.85;;;16.00;99.90;;;;;;4954697;29;20211;-77
2023/04/09 11:39:25;;;;;;;2.53;0.82;;;16.00;99.90;;;;;;4954651;28;20566;-78
2023/04/09 11:41:56;;;;;;;4.32;1.00;;;16.00;99.90;;;;;;4954776;29;20208;-77
2023/04/09 11:44:27;;;;;;;2.38;0.80;;;16.00;99.90;;;;;;4954609;28;20209;-77
2023/04/09 11:46:59;;;;;;;1.33;0.60;;;16.00;99.90;;;;;;4954594;28;20201;-78
2023/04/09 11:49:30;;;;;;;3.38;0.85;;;15.90;99.90;;;;;;4954493;28;20248;-78
2023/04/09 11:52:02;;;;;;;2.45;0.90;;;15.90;99.90;;;;;;4954433;28;20208;-77
2023/04/09 11:54:37;;;;;;;1.95;0.80;;;15.90;99.90;;;;;;4954586;28;20220;-77
2023/04/09 11:57:08;;;;;;;1.83;0.70;;;15.80;99.90;;;;;;4954800;28;20193;-76
2023/04/09 11:59:42;;;;;;;2.47;0.85;;;15.80;99.90;;;;;;4954455;28;20302;-77
2023/04/09 12:02:13;;;;;;;3.97;1.00;;;15.80;99.90;;;;;;4956448;28;20233;-78
2023/04/09 12:04:52;;;;;;;4.50;1.02;;;15.80;99.90;;;;;;4958417;28;20193;-78
2023/04/09 12:07:24;;;;;;;2.58;0.70;;;15.70;99.90;;;;;;4957769;29;20228;-77
2023/04/09 12:09:57;;;;;;;1.75;0.70;;;15.70;99.90;;;;;;4958490;29;20201;-77
2023/04/09 12:12:28;;;;;;;3.72;0.90;;;15.70;99.90;;;;;;4958000;29;20207;-77
2023/04/09 12:14:59;;;;;;;0.95;0.50;;;15.60;99.90;;;;;;4954665;29;20200;-78
2023/04/09 12:17:30;;;;;;;3.97;0.88;;;15.60;99.90;;;;;;4958155;29;20197;-78
2023/04/09 12:20:01;;;;;;;3.03;0.73;;;15.70;99.90;;;;;;4957919;28;20197;-78
2023/04/09 12:22:32;;;;;;;2.22;0.60;;;15.70;99.90;;;;;;4957518;28;20649;-77
2023/04/09 12:25:05;;;;;;;3.78;1.02;;;15.60;99.90;;;;;;4957985;29;20193;-77
2023/04/09 12:27:36;;;;;;;2.55;0.80;;;15.60;99.90;;;;;;4958085;28;20197;-78
2023/04/09 12:30:09;;;;;;;2.60;0.75;;;15.60;99.90;;;;;;4957837;28;20205;-79
2023/04/09 12:32:41;;;;;;;3.65;1.23;;;15.60;99.90;;;;;;4957793;28;20252;-78
2023/04/09 12:35:13;;;;;;;3.05;0.75;;;15.50;99.90;;;;;;4957857;28;20225;-77
2023/04/09 12:37:44;;;;;;;3.35;0.90;;;15.50;99.90;;;;;;4957106;29;20211;-77
2023/04/09 12:40:17;;;;;;;3.50;0.75;;;15.50;99.90;;;;;;4957338;29;20193;-76
2023/04/09 12:42:49;;;;;;;3.47;1.10;;;15.50;99.90;;;;;;4957283;28;20664;-77
2023/04/09 12:45:21;;;;;;;1.63;0.60;;;15.40;99.90;;;;;;4957526;29;20193;-77
2023/04/09 12:47:52;;;;;;;2.95;0.80;;;15.50;99.90;;;;;;4957654;29;20666;-79
2023/04/09 12:50:23;;;;;;;1.23;0.60;;;15.40;99.90;;;;;;4957346;29;20556;-76
2023/04/09 12:52:54;;;;;;;2.28;0.88;;;15.50;99.90;;;;;;4956995;29;20570;-80
2023/04/09 12:55:27;;;;;;;3.10;0.90;;;15.40;99.90;;;;;;4957583;28;20272;-77
2023/04/09 12:58:00;;;;;;;5.13;1.42;;;15.40;99.90;;;;;;4957145;29;20197;-76
2023/04/09 13:00:32;;;;;;;4.32;0.95;;;15.40;99.90;;;;;;4956592;28;20245;-77
2023/04/09 13:03:03;;;;;;;3.78;0.70;;;15.40;99.90;;;;;;4957451;29;20197;-77
2023/04/09 13:05:34;;;;;;;2.72;0.68;;;15.40;99.90;;;;;;4957237;29;20193;-77
2023/04/09 13:08:05;;;;;;;2.83;1.08;;;15.40;99.90;;;;;;4957335;28;20200;-76
2023/04/09 13:10:38;;;;;;;2.58;0.77;;;15.40;99.90;;;;;;4956836;28;20197;-77
2023/04/09 13:13:11;;;;;;;5.50;1.00;;;15.40;99.90;;;;;;4956432;28;20683;-78
2023/04/09 13:15:43;;;;;;;1.58;0.55;;;15.40;99.90;;;;;;4957200;28;20196;-78